Aviation Digital Data Service (ADDS)

Output produced by TAFs form (0217 UTC 03 September 2014)
found at http://www.aviationweather.gov/adds/tafs/
 
KRIC 030210Z 0302/0324 23006KT P6SM SCT080 
     TEMPO 0303/0305 VRB10G20KT 3SM SHRA BKN050 
     FM030500 27003KT P6SM SCT050 BKN080 
     FM031200 36005KT P6SM BKN100 
     FM032000 07003KT P6SM SCT250